sensor_id;sensor_type;location;lat;lon;timestamp;temperature;humidity
59208;DHT22;44977;53.132;6.408;2024-01-30T00:02:31;6.00;99.90
59208;DHT22;44977;53.132;6.408;2024-01-30T00:07:32;6.00;99.90
59208;DHT22;44977;53.132;6.408;2024-01-30T00:12:33;6.00;99.90
59208;DHT22;44977;53.132;6.408;2024-01-30T00:17:33;5.90;99.90
59208;DHT22;44977;53.132;6.408;2024-01-30T00:22:34;5.90;99.90
59208;DHT22;44977;53.132;6.408;2024-01-30T00:27:35;5.90;99.90
59208;DHT22;44977;53.132;6.408;2024-01-30T00:32:36;5.90;99.90
59208;DHT22;44977;53.132;6.408;2024-01-30T00:37:37;5.90;99.90
59208;DHT22;44977;53.132;6.408;2024-01-30T00:42:38;5.90;99.90
59208;DHT22;44977;53.132;6.408;2024-01-30T00:47:38;5.90;99.90
59208;DHT22;44977;53.132;6.408;2024-01-30T00:52:39;5.90;99.90
59208;DHT22;44977;53.132;6.408;2024-01-30T00:57:41;5.90;99.90
59208;DHT22;44977;53.132;6.408;2024-01-30T01:02:42;5.90;99.90
59208;DHT22;44977;53.132;6.408;2024-01-30T01:07:43;5.90;99.90
59208;DHT22;44977;53.132;6.408;2024-01-30T01:12:45;5.90;99.90
59208;DHT22;44977;53.132;6.408;2024-01-30T01:17:45;5.90;99.90
59208;DHT22;44977;53.132;6.408;2024-01-30T01:22:46;6.00;99.90
59208;DHT22;44977;53.132;6.408;2024-01-30T01:27:47;6.00;99.90
59208;DHT22;44977;53.132;6.408;2024-01-30T01:32:52;6.00;99.90
59208;DHT22;44977;53.132;6.408;2024-01-30T01:37:56;6.00;99.90
59208;DHT22;44977;53.132;6.408;2024-01-30T01:43:03;6.00;99.90
59208;DHT22;44977;53.132;6.408;2024-01-30T01:48:04;6.00;99.90
59208;DHT22;44977;53.132;6.408;2024-01-30T01:53:07;6.00;99.90
59208;DHT22;44977;53.132;6.408;2024-01-30T01:58:09;6.00;99.90
59208;DHT22;44977;53.132;6.408;2024-01-30T02:03:10;6.00;99.90
59208;DHT22;44977;53.132;6.408;2024-01-30T02:08:12;6.00;99.90
59208;DHT22;44977;53.132;6.408;2024-01-30T02:13:13;6.00;99.90
59208;DHT22;44977;53.132;6.408;2024-01-30T02:18:14;6.00;99.90
59208;DHT22;44977;53.132;6.408;2024-01-30T02:23:16;6.00;99.90
59208;DHT22;44977;53.132;6.408;2024-01-30T02:28:16;6.00;99.90
59208;DHT22;44977;53.132;6.408;2024-01-30T02:33:17;6.00;99.90
59208;DHT22;44977;53.132;6.408;2024-01-30T02:38:18;6.00;99.90
59208;DHT22;44977;53.132;6.408;2024-01-30T02:43:19;6.10;99.90
59208;DHT22;44977;53.132;6.408;2024-01-30T02:48:19;6.00;99.90
59208;DHT22;44977;53.132;6.408;2024-01-30T02:53:20;6.10;99.90
59208;DHT22;44977;53.132;6.408;2024-01-30T02:58:21;6.00;99.90
59208;DHT22;44977;53.132;6.408;2024-01-30T03:03:21;6.00;99.90
59208;DHT22;44977;53.132;6.408;2024-01-30T03:08:22;6.10;99.90
59208;DHT22;44977;53.132;6.408;2024-01-30T03:13:23;6.00;99.90
59208;DHT22;44977;53.132;6.408;2024-01-30T03:18:25;6.10;99.90
59208;DHT22;44977;53.132;6.408;2024-01-30T03:23:26;6.10;99.90
59208;DHT22;44977;53.132;6.408;2024-01-30T03:28:26;6.10;99.90
59208;DHT22;44977;53.132;6.408;2024-01-30T03:33:27;6.10;99.90
59208;DHT22;44977;53.132;6.408;2024-01-30T03:38:28;6.10;99.90
59208;DHT22;44977;53.132;6.408;2024-01-30T03:43:29;6.20;99.90
59208;DHT22;44977;53.132;6.408;2024-01-30T03:48:30;6.10;99.90
59208;DHT22;44977;53.132;6.408;2024-01-30T03:53:31;6.10;99.90
59208;DHT22;44977;53.132;6.408;2024-01-30T03:58:31;6.10;99.90
59208;DHT22;44977;53.132;6.408;2024-01-30T04:03:32;6.20;99.90
59208;DHT22;44977;53.132;6.408;2024-01-30T04:08:33;6.30;99.90
59208;DHT22;44977;53.132;6.408;2024-01-30T04:13:34;6.30;99.90
59208;DHT22;44977;53.132;6.408;2024-01-30T04:18:35;6.30;99.90
59208;DHT22;44977;53.132;6.408;2024-01-30T04:23:35;6.30;99.90
59208;DHT22;44977;53.132;6.408;2024-01-30T04:28:36;6.30;99.90
59208;DHT22;44977;53.132;6.408;2024-01-30T04:33:37;6.30;99.90
59208;DHT22;44977;53.132;6.408;2024-01-30T04:38:40;6.40;99.90
59208;DHT22;44977;53.132;6.408;2024-01-30T04:43:41;6.40;99.90
59208;DHT22;44977;53.132;6.408;2024-01-30T04:48:41;6.50;99.90
59208;DHT22;44977;53.132;6.408;2024-01-30T04:53:42;6.50;99.90
59208;DHT22;44977;53.132;6.408;2024-01-30T04:58:43;6.50;99.90
59208;DHT22;44977;53.132;6.408;2024-01-30T05:03:44;6.50;99.90
59208;DHT22;44977;53.132;6.408;2024-01-30T05:08:44;6.50;99.90
59208;DHT22;44977;53.132;6.408;2024-01-30T05:13:45;6.50;99.90
59208;DHT22;44977;53.132;6.408;2024-01-30T05:18:46;6.60;99.90
59208;DHT22;44977;53.132;6.408;2024-01-30T05:23:46;6.60;99.90
59208;DHT22;44977;53.132;6.408;2024-01-30T05:28:47;6.60;99.90
59208;DHT22;44977;53.132;6.408;2024-01-30T05:33:48;6.60;99.90
59208;DHT22;44977;53.132;6.408;2024-01-30T05:38:49;6.70;99.90
59208;DHT22;44977;53.132;6.408;2024-01-30T05:43:50;6.70;99.90
59208;DHT22;44977;53.132;6.408;2024-01-30T05:48:51;6.70;99.90
59208;DHT22;44977;53.132;6.408;2024-01-30T05:53:51;6.70;99.90
59208;DHT22;44977;53.132;6.408;2024-01-30T05:58:52;6.80;99.90
59208;DHT22;44977;53.132;6.408;2024-01-30T06:03:53;6.80;99.90
59208;DHT22;44977;53.132;6.408;2024-01-30T06:08:53;6.80;99.90
59208;DHT22;44977;53.132;6.408;2024-01-30T06:13:56;6.90;99.90
59208;DHT22;44977;53.132;6.408;2024-01-30T06:18:57;6.90;99.90
59208;DHT22;44977;53.132;6.408;2024-01-30T06:23:57;7.00;99.90
59208;DHT22;44977;53.132;6.408;2024-01-30T06:28:58;7.00;99.90
59208;DHT22;44977;53.132;6.408;2024-01-30T06:33:59;7.10;99.90
59208;DHT22;44977;53.132;6.408;2024-01-30T06:39:00;7.10;99.90
59208;DHT22;44977;53.132;6.408;2024-01-30T06:44:04;7.20;99.90
59208;DHT22;44977;53.132;6.408;2024-01-30T06:49:06;7.20;99.90
59208;DHT22;44977;53.132;6.408;2024-01-30T06:54:07;7.20;99.90
59208;DHT22;44977;53.132;6.408;2024-01-30T06:59:08;7.30;99.90
59208;DHT22;44977;53.132;6.408;2024-01-30T07:04:08;7.30;99.90
59208;DHT22;44977;53.132;6.408;2024-01-30T07:09:09;7.30;99.90
59208;DHT22;44977;53.132;6.408;2024-01-30T07:14:10;7.40;99.90
59208;DHT22;44977;53.132;6.408;2024-01-30T07:19:11;7.40;99.90
59208;DHT22;44977;53.132;6.408;2024-01-30T07:24:11;7.40;99.90
59208;DHT22;44977;53.132;6.408;2024-01-30T07:29:12;7.40;99.90
59208;DHT22;44977;53.132;6.408;2024-01-30T07:34:13;7.50;99.90
59208;DHT22;44977;53.132;6.408;2024-01-30T07:39:14;7.40;99.90
59208;DHT22;44977;53.132;6.408;2024-01-30T07:44:14;7.40;99.90
59208;DHT22;44977;53.132;6.408;2024-01-30T07:49:16;7.50;99.90
59208;DHT22;44977;53.132;6.408;2024-01-30T07:54:17;7.50;99.90
59208;DHT22;44977;53.132;6.408;2024-01-30T07:59:18;7.50;99.90
59208;DHT22;44977;53.132;6.408;2024-01-30T08:04:20;7.50;99.90
59208;DHT22;44977;53.132;6.408;2024-01-30T08:09:20;7.60;99.90
59208;DHT22;44977;53.132;6.408;2024-01-30T08:14:21;7.60;99.90
59208;DHT22;44977;53.132;6.408;2024-01-30T08:19:21;7.60;99.90
59208;DHT22;44977;53.132;6.408;2024-01-30T08:24:22;7.60;99.90
59208;DHT22;44977;53.132;6.408;2024-01-30T08:29:23;7.60;99.90
59208;DHT22;44977;53.132;6.408;2024-01-30T08:34:23;7.70;99.90
59208;DHT22;44977;53.132;6.408;2024-01-30T08:39:24;7.80;99.90
59208;DHT22;44977;53.132;6.408;2024-01-30T08:44:25;7.90;99.90
59208;DHT22;44977;53.132;6.408;2024-01-30T08:49:26;7.90;99.90
59208;DHT22;44977;53.132;6.408;2024-01-30T08:54:26;7.90;99.90
59208;DHT22;44977;53.132;6.408;2024-01-30T08:59:27;8.00;99.90
59208;DHT22;44977;53.132;6.408;2024-01-30T09:04:28;8.10;99.90
59208;DHT22;44977;53.132;6.408;2024-01-30T09:09:30;8.20;99.90
59208;DHT22;44977;53.132;6.408;2024-01-30T09:14:30;8.30;99.90
59208;DHT22;44977;53.132;6.408;2024-01-30T09:19:31;8.30;99.90
59208;DHT22;44977;53.132;6.408;2024-01-30T09:24:32;8.40;99.90
59208;DHT22;44977;53.132;6.408;2024-01-30T09:29:32;8.50;99.90
59208;DHT22;44977;53.132;6.408;2024-01-30T09:34:34;8.60;99.90
59208;DHT22;44977;53.132;6.408;2024-01-30T09:39:35;8.70;99.90
59208;DHT22;44977;53.132;6.408;2024-01-30T09:44:38;8.80;99.90
59208;DHT22;44977;53.132;6.408;2024-01-30T09:49:39;8.90;99.90
59208;DHT22;44977;53.132;6.408;2024-01-30T09:54:43;9.00;99.90
59208;DHT22;44977;53.132;6.408;2024-01-30T09:59:45;9.10;99.90
59208;DHT22;44977;53.132;6.408;2024-01-30T10:04:49;9.20;99.90
59208;DHT22;44977;53.132;6.408;2024-01-30T10:09:50;9.20;99.90
59208;DHT22;44977;53.132;6.408;2024-01-30T10:14:51;9.30;99.90
59208;DHT22;44977;53.132;6.408;2024-01-30T10:19:52;9.40;99.90
59208;DHT22;44977;53.132;6.408;2024-01-30T10:24:53;9.40;99.90
59208;DHT22;44977;53.132;6.408;2024-01-30T10:29:54;9.50;99.90
59208;DHT22;44977;53.132;6.408;2024-01-30T10:34:55;9.50;99.90
59208;DHT22;44977;53.132;6.408;2024-01-30T10:39:56;9.60;99.90
59208;DHT22;44977;53.132;6.408;2024-01-30T10:45:14;9.50;99.90
59208;DHT22;44977;53.132;6.408;2024-01-30T10:50:16;9.70;99.90
59208;DHT22;44977;53.132;6.408;2024-01-30T10:55:18;9.60;99.90
59208;DHT22;44977;53.132;6.408;2024-01-30T11:00:19;9.70;99.90
59208;DHT22;44977;53.132;6.408;2024-01-30T11:05:24;9.70;99.90
59208;DHT22;44977;53.132;6.408;2024-01-30T11:10:28;9.70;99.90
59208;DHT22;44977;53.132;6.408;2024-01-30T11:15:29;9.80;99.90
59208;DHT22;44977;53.132;6.408;2024-01-30T11:20:32;9.90;99.90
59208;DHT22;44977;53.132;6.408;2024-01-30T11:25:33;9.90;99.90
59208;DHT22;44977;53.132;6.408;2024-01-30T11:30:34;10.00;99.90
59208;DHT22;44977;53.132;6.408;2024-01-30T11:35:37;10.00;99.90
59208;DHT22;44977;53.132;6.408;2024-01-30T11:40:40;10.00;99.90
59208;DHT22;44977;53.132;6.408;2024-01-30T11:45:41;9.90;99.90
59208;DHT22;44977;53.132;6.408;2024-01-30T11:50:41;9.90;99.90
59208;DHT22;44977;53.132;6.408;2024-01-30T11:55:49;9.80;99.90
59208;DHT22;44977;53.132;6.408;2024-01-30T12:00:57;9.80;99.90
59208;DHT22;44977;53.132;6.408;2024-01-30T12:05:58;9.80;99.90
59208;DHT22;44977;53.132;6.408;2024-01-30T12:10:59;9.70;99.90
59208;DHT22;44977;53.132;6.408;2024-01-30T12:16:02;9.70;99.90
59208;DHT22;44977;53.132;6.408;2024-01-30T12:21:03;9.70;99.90
59208;DHT22;44977;53.132;6.408;2024-01-30T12:26:04;9.60;99.90
59208;DHT22;44977;53.132;6.408;2024-01-30T12:31:09;9.70;99.90
59208;DHT22;44977;53.132;6.408;2024-01-30T12:36:11;9.70;99.90
59208;DHT22;44977;53.132;6.408;2024-01-30T12:41:12;9.70;99.90
59208;DHT22;44977;53.132;6.408;2024-01-30T12:46:12;9.70;99.90
59208;DHT22;44977;53.132;6.408;2024-01-30T12:51:13;9.60;99.90
59208;DHT22;44977;53.132;6.408;2024-01-30T12:56:14;9.60;99.90
59208;DHT22;44977;53.132;6.408;2024-01-30T13:01:15;9.50;99.90
59208;DHT22;44977;53.132;6.408;2024-01-30T13:06:16;9.50;99.90
59208;DHT22;44977;53.132;6.408;2024-01-30T13:11:16;9.50;99.90
59208;DHT22;44977;53.132;6.408;2024-01-30T13:16:18;9.40;99.90
59208;DHT22;44977;53.132;6.408;2024-01-30T13:21:18;9.50;99.90
59208;DHT22;44977;53.132;6.408;2024-01-30T13:26:20;9.50;99.90
59208;DHT22;44977;53.132;6.408;2024-01-30T13:31:20;9.50;99.90
59208;DHT22;44977;53.132;6.408;2024-01-30T13:36:21;9.50;99.90
59208;DHT22;44977;53.132;6.408;2024-01-30T13:41:22;9.50;99.90
59208;DHT22;44977;53.132;6.408;2024-01-30T13:46:23;9.50;99.90
59208;DHT22;44977;53.132;6.408;2024-01-30T13:51:24;9.50;99.90
59208;DHT22;44977;53.132;6.408;2024-01-30T13:56:25;9.50;99.90
59208;DHT22;44977;53.132;6.408;2024-01-30T14:01:27;9.50;99.90
59208;DHT22;44977;53.132;6.408;2024-01-30T14:06:27;9.40;99.90
59208;DHT22;44977;53.132;6.408;2024-01-30T14:11:28;9.40;99.90
59208;DHT22;44977;53.132;6.408;2024-01-30T14:16:29;9.30;99.90
59208;DHT22;44977;53.132;6.408;2024-01-30T14:21:29;9.20;99.90
59208;DHT22;44977;53.132;6.408;2024-01-30T14:26:30;9.10;99.90
59208;DHT22;44977;53.132;6.408;2024-01-30T14:31:31;9.10;99.90
59208;DHT22;44977;53.132;6.408;2024-01-30T14:36:32;9.00;99.90
59208;DHT22;44977;53.132;6.408;2024-01-30T14:41:32;8.90;99.90
59208;DHT22;44977;53.132;6.408;2024-01-30T14:46:33;8.80;99.90
59208;DHT22;44977;53.132;6.408;2024-01-30T14:51:34;8.80;99.90
59208;DHT22;44977;53.132;6.408;2024-01-30T14:56:35;8.80;99.90
59208;DHT22;44977;53.132;6.408;2024-01-30T15:01:36;8.70;99.90
59208;DHT22;44977;53.132;6.408;2024-01-30T15:06:37;8.70;99.90
59208;DHT22;44977;53.132;6.408;2024-01-30T15:11:38;8.70;99.90
59208;DHT22;44977;53.132;6.408;2024-01-30T15:16:39;8.70;99.90
59208;DHT22;44977;53.132;6.408;2024-01-30T15:21:40;8.60;99.90
59208;DHT22;44977;53.132;6.408;2024-01-30T15:26:40;8.60;99.90
59208;DHT22;44977;53.132;6.408;2024-01-30T15:31:41;8.60;99.90
59208;DHT22;44977;53.132;6.408;2024-01-30T15:36:42;8.50;99.90
59208;DHT22;44977;53.132;6.408;2024-01-30T15:41:43;8.60;99.90
59208;DHT22;44977;53.132;6.408;2024-01-30T15:46:44;8.60;99.90
59208;DHT22;44977;53.132;6.408;2024-01-30T15:51:44;8.50;99.90
59208;DHT22;44977;53.132;6.408;2024-01-30T15:56:45;8.50;99.90
59208;DHT22;44977;53.132;6.408;2024-01-30T16:01:46;8.50;99.90
59208;DHT22;44977;53.132;6.408;2024-01-30T16:06:49;8.40;99.90
59208;DHT22;44977;53.132;6.408;2024-01-30T16:11:50;8.40;99.90
59208;DHT22;44977;53.132;6.408;2024-01-30T16:16:50;8.40;99.90
59208;DHT22;44977;53.132;6.408;2024-01-30T16:21:51;8.30;99.90
59208;DHT22;44977;53.132;6.408;2024-01-30T16:26:52;8.40;99.90
59208;DHT22;44977;53.132;6.408;2024-01-30T16:31:53;8.30;99.90
59208;DHT22;44977;53.132;6.408;2024-01-30T16:36:53;8.30;99.90
59208;DHT22;44977;53.132;6.408;2024-01-30T16:41:54;8.20;99.90
59208;DHT22;44977;53.132;6.408;2024-01-30T16:46:55;8.20;99.90
59208;DHT22;44977;53.132;6.408;2024-01-30T16:51:55;8.10;99.90
59208;DHT22;44977;53.132;6.408;2024-01-30T16:56:56;8.10;99.90
59208;DHT22;44977;53.132;6.408;2024-01-30T17:01:57;8.00;99.90
59208;DHT22;44977;53.132;6.408;2024-01-30T17:06:57;8.00;99.90
59208;DHT22;44977;53.132;6.408;2024-01-30T17:11:59;8.00;99.90
59208;DHT22;44977;53.132;6.408;2024-01-30T17:17:03;7.90;99.90
59208;DHT22;44977;53.132;6.408;2024-01-30T17:22:04;7.90;99.90
59208;DHT22;44977;53.132;6.408;2024-01-30T17:27:06;7.90;99.90
59208;DHT22;44977;53.132;6.408;2024-01-30T17:32:07;7.80;99.90
59208;DHT22;44977;53.132;6.408;2024-01-30T17:37:10;7.80;99.90
59208;DHT22;44977;53.132;6.408;2024-01-30T17:42:11;7.70;99.90
59208;DHT22;44977;53.132;6.408;2024-01-30T17:47:12;7.70;99.90
59208;DHT22;44977;53.132;6.408;2024-01-30T17:52:12;7.70;99.90
59208;DHT22;44977;53.132;6.408;2024-01-30T17:57:13;7.70;99.90
59208;DHT22;44977;53.132;6.408;2024-01-30T18:02:14;7.60;99.90
59208;DHT22;44977;53.132;6.408;2024-01-30T18:07:15;7.60;99.90
59208;DHT22;44977;53.132;6.408;2024-01-30T18:12:16;7.60;99.90
59208;DHT22;44977;53.132;6.408;2024-01-30T18:17:17;7.60;99.90
59208;DHT22;44977;53.132;6.408;2024-01-30T18:22:17;7.50;99.90
59208;DHT22;44977;53.132;6.408;2024-01-30T18:27:18;7.50;99.90
59208;DHT22;44977;53.132;6.408;2024-01-30T18:32:19;7.50;99.90
59208;DHT22;44977;53.132;6.408;2024-01-30T18:37:19;7.50;99.90
59208;DHT22;44977;53.132;6.408;2024-01-30T18:42:20;7.40;99.90
59208;DHT22;44977;53.132;6.408;2024-01-30T18:47:21;7.30;99.90
59208;DHT22;44977;53.132;6.408;2024-01-30T18:52:21;7.30;99.90
59208;DHT22;44977;53.132;6.408;2024-01-30T18:57:22;7.30;99.90
59208;DHT22;44977;53.132;6.408;2024-01-30T19:02:23;7.30;99.90
59208;DHT22;44977;53.132;6.408;2024-01-30T19:07:23;7.30;99.90
59208;DHT22;44977;53.132;6.408;2024-01-30T19:12:24;7.30;99.90
59208;DHT22;44977;53.132;6.408;2024-01-30T19:17:27;7.20;99.90
59208;DHT22;44977;53.132;6.408;2024-01-30T19:22:28;7.20;99.90
59208;DHT22;44977;53.132;6.408;2024-01-30T19:27:29;7.20;99.90
59208;DHT22;44977;53.132;6.408;2024-01-30T19:32:30;7.20;99.90
59208;DHT22;44977;53.132;6.408;2024-01-30T19:37:31;7.10;99.90
59208;DHT22;44977;53.132;6.408;2024-01-30T19:42:38;7.10;99.90
59208;DHT22;44977;53.132;6.408;2024-01-30T19:47:39;7.00;99.90
59208;DHT22;44977;53.132;6.408;2024-01-30T19:52:41;7.00;99.90
59208;DHT22;44977;53.132;6.408;2024-01-30T19:57:43;6.90;99.90
59208;DHT22;44977;53.132;6.408;2024-01-30T20:02:44;6.90;99.90
59208;DHT22;44977;53.132;6.408;2024-01-30T20:07:45;6.90;99.90
59208;DHT22;44977;53.132;6.408;2024-01-30T20:12:46;6.80;99.90
59208;DHT22;44977;53.132;6.408;2024-01-30T20:17:47;6.80;99.90
59208;DHT22;44977;53.132;6.408;2024-01-30T20:22:51;6.80;99.90
59208;DHT22;44977;53.132;6.408;2024-01-30T20:27:52;6.70;99.90
59208;DHT22;44977;53.132;6.408;2024-01-30T20:32:54;6.70;99.90
59208;DHT22;44977;53.132;6.408;2024-01-30T20:37:54;6.70;99.90
59208;DHT22;44977;53.132;6.408;2024-01-30T20:42:55;6.70;99.90
59208;DHT22;44977;53.132;6.408;2024-01-30T20:47:56;6.60;99.90
59208;DHT22;44977;53.132;6.408;2024-01-30T20:52:57;6.60;99.90
59208;DHT22;44977;53.132;6.408;2024-01-30T20:57:58;6.50;99.90
59208;DHT22;44977;53.132;6.408;2024-01-30T21:02:58;6.50;99.90
59208;DHT22;44977;53.132;6.408;2024-01-30T21:07:59;6.40;99.90
59208;DHT22;44977;53.132;6.408;2024-01-30T21:13:00;6.30;99.90
59208;DHT22;44977;53.132;6.408;2024-01-30T21:18:00;6.30;99.90
59208;DHT22;44977;53.132;6.408;2024-01-30T21:23:04;6.20;99.90
59208;DHT22;44977;53.132;6.408;2024-01-30T21:28:04;6.20;99.90
59208;DHT22;44977;53.132;6.408;2024-01-30T21:33:05;6.20;99.90
59208;DHT22;44977;53.132;6.408;2024-01-30T21:38:06;6.10;99.90
59208;DHT22;44977;53.132;6.408;2024-01-30T21:43:07;6.10;99.90
59208;DHT22;44977;53.132;6.408;2024-01-30T21:48:07;6.00;99.90
59208;DHT22;44977;53.132;6.408;2024-01-30T21:53:08;6.00;99.90
59208;DHT22;44977;53.132;6.408;2024-01-30T21:58:09;6.00;99.90
59208;DHT22;44977;53.132;6.408;2024-01-30T22:03:09;5.90;99.90
59208;DHT22;44977;53.132;6.408;2024-01-30T22:08:10;5.90;99.90
59208;DHT22;44977;53.132;6.408;2024-01-30T22:13:11;5.90;99.90
59208;DHT22;44977;53.132;6.408;2024-01-30T22:18:11;5.90;99.90
59208;DHT22;44977;53.132;6.408;2024-01-30T22:23:12;5.90;99.90
59208;DHT22;44977;53.132;6.408;2024-01-30T22:28:13;5.90;99.90
59208;DHT22;44977;53.132;6.408;2024-01-30T22:33:14;5.90;99.90
59208;DHT22;44977;53.132;6.408;2024-01-30T22:38:15;5.80;99.90
59208;DHT22;44977;53.132;6.408;2024-01-30T22:43:15;5.80;99.90
59208;DHT22;44977;53.132;6.408;2024-01-30T22:48:16;5.80;99.90
59208;DHT22;44977;53.132;6.408;2024-01-30T22:53:17;5.80;99.90
59208;DHT22;44977;53.132;6.408;2024-01-30T22:58:18;5.70;99.90
59208;DHT22;44977;53.132;6.408;2024-01-30T23:03:18;5.70;99.90
59208;DHT22;44977;53.132;6.408;2024-01-30T23:08:19;5.70;99.90
59208;DHT22;44977;53.132;6.408;2024-01-30T23:13:20;5.70;99.90
59208;DHT22;44977;53.132;6.408;2024-01-30T23:18:21;5.70;99.90
59208;DHT22;44977;53.132;6.408;2024-01-30T23:23:22;5.70;99.90
59208;DHT22;44977;53.132;6.408;2024-01-30T23:28:22;5.60;99.90
59208;DHT22;44977;53.132;6.408;2024-01-30T23:33:23;5.60;99.90
59208;DHT22;44977;53.132;6.408;2024-01-30T23:38:24;5.60;99.90
59208;DHT22;44977;53.132;6.408;2024-01-30T23:43:24;5.60;99.90
59208;DHT22;44977;53.132;6.408;2024-01-30T23:48:25;5.70;99.90
59208;DHT22;44977;53.132;6.408;2024-01-30T23:53:26;5.60;99.90
59208;DHT22;44977;53.132;6.408;2024-01-30T23:58:26;5.60;99.90
